createdAt,value
2018-11-12T00:02:41.128Z,2.20
2018-11-12T00:06:53.218Z,1.93
2018-11-12T00:11:05.335Z,3.00
2018-11-12T00:15:17.484Z,1.90
2018-11-12T00:19:30.780Z,2.37
2018-11-12T00:23:42.976Z,2.70
2018-11-12T00:27:55.185Z,2.30
2018-11-12T00:32:07.287Z,1.80
2018-11-12T00:36:19.494Z,2.33
2018-11-12T00:40:31.543Z,2.33
2018-11-12T00:44:43.524Z,1.50
2018-11-12T00:48:55.683Z,1.80
2018-11-12T00:53:07.731Z,1.63
2018-11-12T00:57:19.958Z,1.60
2018-11-12T01:01:32.062Z,1.40
2018-11-12T01:05:44.110Z,1.10
2018-11-12T01:09:56.212Z,2.00
2018-11-12T01:14:08.307Z,1.93
2018-11-12T01:18:20.389Z,1.50
2018-11-12T01:22:32.388Z,1.20
2018-11-12T01:26:44.576Z,1.30
2018-11-12T01:31:02.138Z,1.80
2018-11-12T01:35:15.780Z,2.40
2018-11-12T01:39:28.107Z,2.13
2018-11-12T01:43:40.204Z,1.80
2018-11-12T01:47:52.415Z,2.03
2018-11-12T01:52:04.455Z,2.13
2018-11-12T01:56:16.631Z,1.77
2018-11-12T02:00:28.703Z,1.23
2018-11-12T02:04:40.745Z,1.90
2018-11-12T02:08:52.971Z,1.73
2018-11-12T02:13:05.272Z,2.00
2018-11-12T02:17:17.232Z,2.07
2018-11-12T02:21:29.327Z,2.00
2018-11-12T02:25:41.448Z,1.93
2018-11-12T02:29:53.595Z,2.17
2018-11-12T02:34:05.819Z,1.73
2018-11-12T02:38:17.812Z,2.10
2018-11-12T02:42:29.826Z,2.23
2018-11-12T02:46:41.936Z,2.53
2018-11-12T02:50:54.081Z,1.87
2018-11-12T02:55:07.151Z,1.63
2018-11-12T02:59:19.563Z,1.07
2018-11-12T03:03:31.864Z,1.80
2018-11-12T03:07:44.142Z,2.23
2018-11-12T03:11:56.250Z,2.03
2018-11-12T03:16:09.208Z,1.77
2018-11-12T03:20:22.534Z,2.13
2018-11-12T03:24:34.432Z,2.27
2018-11-12T03:28:47.528Z,2.40
2018-11-12T03:32:59.528Z,2.40
2018-11-12T03:37:11.626Z,2.27
2018-11-12T03:41:23.739Z,2.27
2018-11-12T03:45:35.857Z,2.37
2018-11-12T03:49:48.011Z,1.77
2018-11-12T03:53:59.975Z,3.23
2018-11-12T03:58:11.972Z,3.07
2018-11-12T04:02:24.080Z,2.57
2018-11-12T04:06:36.220Z,2.63
2018-11-12T04:10:48.292Z,2.93
2018-11-12T04:15:00.310Z,2.97
2018-11-12T04:19:12.516Z,3.53
2018-11-12T04:23:24.671Z,3.27
2018-11-12T04:27:36.847Z,3.13
2018-11-12T04:31:48.965Z,2.90
2018-11-12T04:36:01.175Z,3.43
2018-11-12T04:40:15.516Z,2.47
2018-11-12T04:44:27.289Z,2.93
2018-11-12T04:48:39.340Z,2.73
2018-11-12T04:52:51.552Z,3.33
2018-11-12T04:57:03.528Z,2.67
2018-11-12T05:01:15.623Z,2.50
2018-11-12T05:05:29.040Z,3.20
2018-11-12T05:09:41.262Z,2.80
2018-11-12T05:13:53.247Z,3.30
2018-11-12T05:18:05.311Z,2.53
2018-11-12T05:22:17.443Z,3.10
2018-11-12T05:26:29.536Z,2.80
2018-11-12T05:30:41.747Z,3.27
2018-11-12T05:34:53.894Z,3.27
2018-11-12T05:39:07.817Z,2.80
2018-11-12T05:43:19.795Z,2.40
2018-11-12T05:47:31.802Z,2.53
2018-11-12T05:51:43.934Z,3.63
2018-11-12T05:55:55.935Z,3.10
2018-11-12T06:00:08.892Z,2.93
2018-11-12T06:04:20.701Z,2.80
2018-11-12T06:08:32.711Z,3.03
2018-11-12T06:12:45.157Z,2.57
2018-11-12T06:16:56.934Z,2.67
2018-11-12T06:21:08.899Z,3.07
2018-11-12T06:25:22.066Z,2.70
2018-11-12T06:29:34.212Z,3.23
2018-11-12T06:33:46.320Z,2.73
2018-11-12T06:37:58.626Z,3.43
2018-11-12T06:42:10.657Z,3.30
2018-11-12T06:46:22.781Z,3.23
2018-11-12T06:50:35.129Z,2.60
2018-11-12T06:54:47.140Z,3.20
2018-11-12T06:58:59.303Z,2.87
2018-11-12T07:03:11.317Z,3.27
2018-11-12T07:07:23.396Z,2.67
2018-11-12T07:11:35.396Z,3.33
2018-11-12T07:15:47.503Z,2.70
2018-11-12T07:19:59.621Z,3.57
2018-11-12T07:24:12.495Z,3.50
2018-11-12T07:28:24.446Z,3.43
2018-11-12T07:32:36.376Z,2.47
2018-11-12T07:36:48.377Z,2.60
2018-11-12T07:41:00.443Z,2.70
2018-11-12T07:45:16.142Z,2.93
2018-11-12T07:49:28.449Z,2.53
2018-11-12T07:53:40.687Z,2.70
2018-11-12T07:57:53.953Z,2.40
2018-11-12T08:02:05.703Z,2.40
2018-11-12T08:06:17.781Z,2.77
2018-11-12T08:10:29.975Z,2.10
2018-11-12T08:14:41.880Z,2.30
2018-11-12T08:18:53.855Z,2.10
2018-11-12T08:23:05.787Z,2.80
2018-11-12T08:27:18.062Z,3.10
2018-11-12T08:31:30.014Z,2.80
2018-11-12T08:35:42.671Z,2.93
2018-11-12T08:39:54.530Z,2.20
2018-11-12T08:44:06.344Z,2.23
2018-11-12T08:48:18.501Z,3.50
2018-11-12T08:52:30.825Z,2.50
2018-11-12T08:56:43.855Z,2.77
2018-11-12T09:00:56.193Z,2.97
2018-11-12T09:05:10.388Z,3.10
2018-11-12T09:09:22.607Z,2.50
2018-11-12T09:13:34.488Z,1.93
2018-11-12T09:17:47.512Z,2.77
2018-11-12T09:21:59.683Z,2.20
2018-11-12T09:26:11.880Z,3.27
2018-11-12T09:30:28.760Z,2.57
2018-11-12T09:34:40.945Z,2.60
2018-11-12T09:38:53.145Z,3.20
2018-11-12T09:43:05.239Z,2.93
2018-11-12T09:47:17.275Z,2.63
2018-11-12T09:51:32.011Z,3.03
2018-11-12T09:55:44.213Z,2.27
2018-11-12T09:59:56.366Z,2.53
2018-11-12T10:04:09.327Z,2.87
2018-11-12T10:08:22.334Z,2.20
2018-11-12T10:12:34.861Z,2.90
2018-11-12T10:16:47.262Z,2.47
2018-11-12T10:20:56.663Z,2.43
2018-11-12T10:25:08.770Z,2.63
2018-11-12T10:29:21.809Z,2.33
2018-11-12T10:33:33.555Z,2.47
2018-11-12T10:37:46.624Z,2.50
2018-11-12T10:41:58.739Z,2.70
2018-11-12T10:46:11.684Z,2.97
2018-11-12T10:50:23.890Z,2.80
2018-11-12T10:54:35.727Z,2.57
2018-11-12T10:58:48.198Z,3.27
2018-11-12T11:03:06.439Z,2.40
2018-11-12T11:07:18.311Z,2.43
2018-11-12T11:11:30.203Z,2.50
2018-11-12T11:15:42.303Z,2.60
2018-11-12T11:19:54.315Z,2.47
2018-11-12T11:24:06.271Z,2.77
2018-11-12T11:28:18.308Z,3.40
2018-11-12T11:32:32.297Z,2.13
2018-11-12T11:36:44.383Z,2.13
2018-11-12T11:40:56.835Z,2.40
2018-11-12T11:45:09.898Z,2.30
2018-11-12T11:49:22.225Z,2.57
2018-11-12T11:53:34.720Z,2.00
2018-11-12T11:57:47.005Z,1.93
2018-11-12T12:01:58.912Z,2.03
2018-11-12T12:06:10.797Z,3.20
2018-11-12T12:10:23.036Z,1.87
2018-11-12T12:14:34.774Z,1.73
2018-11-12T12:18:46.794Z,2.17
2018-11-12T12:22:59.138Z,1.50
2018-11-12T12:27:11.020Z,2.10
2018-11-12T12:31:23.244Z,1.63
2018-11-12T12:35:35.175Z,1.40
2018-11-12T12:39:48.324Z,1.93
2018-11-12T12:44:00.322Z,1.97
2018-11-12T12:48:12.432Z,1.57
2018-11-12T12:52:24.559Z,2.20
2018-11-12T12:56:36.917Z,2.10
2018-11-12T13:00:49.056Z,1.63
2018-11-12T13:05:01.108Z,1.93
2018-11-12T13:09:13.062Z,1.50
2018-11-12T13:13:24.959Z,2.40
2018-11-12T13:17:36.971Z,2.00
2018-11-12T13:21:49.027Z,2.27
2018-11-12T13:26:01.194Z,2.33
2018-11-12T13:30:16.776Z,3.40
2018-11-12T13:34:28.675Z,1.87
2018-11-12T13:38:40.523Z,1.90
2018-11-12T13:42:54.156Z,2.93
2018-11-12T13:47:06.547Z,2.37
2018-11-12T13:51:18.512Z,2.13
2018-11-12T13:55:30.539Z,2.20
2018-11-12T13:59:42.407Z,2.27
2018-11-12T14:03:54.560Z,2.97
2018-11-12T14:08:06.607Z,3.30
2018-11-12T14:12:18.700Z,1.77
2018-11-12T14:16:30.784Z,1.70
2018-11-12T14:20:42.964Z,2.30
2018-11-12T14:24:54.904Z,2.27
2018-11-12T14:29:07.065Z,2.30
2018-11-12T14:33:19.091Z,2.23
2018-11-12T14:37:31.111Z,1.93
2018-11-12T14:41:43.033Z,1.63
2018-11-12T14:45:55.144Z,2.07
2018-11-12T14:50:07.270Z,1.17
2018-11-12T14:54:19.243Z,1.37
2018-11-12T14:58:31.368Z,1.50
2018-11-12T15:02:43.492Z,1.70
2018-11-12T15:06:55.636Z,1.60
2018-11-12T15:11:07.735Z,1.73
2018-11-12T15:15:19.802Z,2.00
2018-11-12T15:19:31.892Z,1.30
2018-11-12T15:23:43.891Z,1.73
2018-11-12T15:27:56.033Z,1.63
2018-11-12T15:32:08.579Z,2.00
2018-11-12T15:36:20.575Z,2.17
2018-11-12T15:40:32.558Z,2.17
2018-11-12T15:44:44.633Z,2.00
2018-11-12T15:48:56.749Z,2.17
2018-11-12T15:53:08.767Z,2.43
2018-11-12T15:57:20.978Z,2.20
2018-11-12T16:01:33.084Z,1.77
2018-11-12T16:05:45.101Z,1.67
2018-11-12T16:09:58.664Z,2.10
2018-11-12T16:14:11.230Z,2.30
2018-11-12T16:18:23.212Z,1.60
2018-11-12T16:22:35.252Z,1.63
2018-11-12T16:26:47.368Z,3.00
2018-11-12T16:30:59.652Z,2.33
2018-11-12T16:35:14.126Z,2.73
2018-11-12T16:39:26.256Z,2.27
2018-11-12T16:43:38.360Z,2.03
2018-11-12T16:47:50.359Z,2.10
2018-11-12T16:52:02.471Z,2.43
2018-11-12T16:56:14.590Z,2.87
2018-11-12T17:00:26.858Z,2.43
2018-11-12T17:04:38.880Z,2.10
2018-11-12T17:08:50.848Z,2.57
2018-11-12T17:13:02.911Z,2.27
2018-11-12T17:17:14.926Z,2.53
2018-11-12T17:21:27.031Z,2.00
2018-11-12T17:25:39.144Z,2.00
2018-11-12T17:29:51.239Z,2.40
2018-11-12T17:34:03.291Z,2.37
2018-11-12T17:38:15.447Z,2.33
2018-11-12T17:42:27.635Z,2.80
2018-11-12T17:46:39.676Z,2.80
2018-11-12T17:50:51.700Z,2.37
2018-11-12T17:55:03.785Z,3.07
2018-11-12T17:59:15.900Z,2.77
2018-11-12T18:03:28.010Z,2.73
2018-11-12T18:07:40.546Z,2.43
2018-11-12T18:11:52.534Z,2.60
2018-11-12T18:16:06.262Z,2.30
2018-11-12T18:20:20.289Z,2.43
2018-11-12T18:24:32.244Z,2.23
2018-11-12T18:28:44.092Z,3.20
2018-11-12T18:32:56.979Z,3.00
2018-11-12T18:37:09.377Z,2.63
2018-11-12T18:41:21.603Z,2.37
2018-11-12T18:45:33.598Z,2.57
2018-11-12T18:49:45.704Z,3.40
2018-11-12T18:53:59.903Z,2.90
2018-11-12T18:58:12.182Z,2.33
2018-11-12T19:02:24.048Z,2.50
2018-11-12T19:06:38.632Z,2.87
2018-11-12T19:10:50.974Z,2.70
2018-11-12T19:15:02.884Z,3.10
2018-11-12T19:19:14.966Z,3.23
2018-11-12T19:23:27.064Z,3.03
2018-11-12T19:27:39.184Z,2.80
2018-11-12T19:31:51.266Z,3.17
2018-11-12T19:36:03.631Z,2.73
2018-11-12T19:40:16.987Z,3.27
2018-11-12T19:44:29.241Z,3.43
2018-11-12T19:48:41.594Z,3.70
2018-11-12T19:52:54.808Z,3.30
2018-11-12T19:57:08.579Z,3.90
2018-11-12T20:01:20.759Z,3.40
2018-11-12T20:05:32.777Z,3.23
2018-11-12T20:09:44.932Z,2.90
2018-11-12T20:13:57.227Z,3.70
2018-11-12T20:18:09.183Z,2.87
2018-11-12T20:22:21.300Z,3.13
2018-11-12T20:26:33.299Z,3.83
2018-11-12T20:30:45.403Z,2.23
2018-11-12T20:34:57.433Z,2.67
2018-11-12T20:39:10.962Z,2.47
2018-11-12T20:43:23.061Z,2.53
2018-11-12T20:47:35.201Z,2.23
2018-11-12T20:51:47.300Z,2.00
2018-11-12T20:55:59.404Z,2.30
2018-11-12T21:00:15.226Z,2.60
2018-11-12T21:04:27.128Z,2.00
2018-11-12T21:08:39.200Z,1.80
2018-11-12T21:12:51.676Z,1.93
2018-11-12T21:17:03.564Z,2.10
2018-11-12T21:21:15.620Z,2.33
2018-11-12T21:25:28.203Z,2.47
2018-11-12T21:29:40.119Z,1.87
2018-11-12T21:33:52.196Z,1.87
2018-11-12T21:38:04.261Z,1.60
2018-11-12T21:42:16.558Z,2.07
2018-11-12T21:46:28.529Z,2.13
2018-11-12T21:50:40.591Z,2.50
2018-11-12T21:54:52.564Z,1.90
2018-11-12T21:59:04.652Z,2.30
2018-11-12T22:03:16.892Z,2.10
2018-11-12T22:07:28.947Z,1.90
2018-11-12T22:11:41.159Z,1.80
2018-11-12T22:15:53.489Z,2.40
2018-11-12T22:20:06.355Z,1.90
2018-11-12T22:24:18.496Z,2.63
2018-11-12T22:28:30.616Z,1.93
2018-11-12T22:32:46.464Z,1.80
2018-11-12T22:37:01.849Z,1.87
2018-11-12T22:41:13.821Z,1.93
2018-11-12T22:45:27.868Z,3.07
2018-11-12T22:49:43.566Z,2.13
2018-11-12T22:53:55.579Z,2.53
2018-11-12T22:58:07.628Z,2.40
2018-11-12T23:02:19.590Z,2.80
2018-11-12T23:06:31.751Z,2.80
2018-11-12T23:10:43.763Z,2.10
2018-11-12T23:14:55.850Z,2.37
2018-11-12T23:19:08.242Z,3.43
2018-11-12T23:23:20.180Z,2.60
2018-11-12T23:27:32.294Z,2.63
2018-11-12T23:31:44.384Z,2.40
2018-11-12T23:35:56.507Z,2.67
2018-11-12T23:40:09.517Z,2.13
2018-11-12T23:44:21.484Z,2.60
2018-11-12T23:48:33.414Z,2.63
2018-11-12T23:52:46.095Z,2.27
2018-11-12T23:56:58.368Z,2.03
